Time;durP1;ratioP1;P1;durP2;ratioP2;P2;SDS_P1;SDS_P2;PMS_P1;PMS_P2;Temp;Humidity;BMP_temperature;BMP_pressure;BME280_temperature;BME280_humidity;BME280_pressure;Samples;Min_cycle;Max_cycle;Signal;HPM_P1;HPM_P2
2022/07/17 00:01:10;;;;;;;7.85;2.92;;;;;;;17.93;55.67;100986.03;5122976;27;20051;-59
2022/07/17 00:03:57;;;;;;;5.72;2.25;;;;;;;17.92;55.23;100989.53;5093634;28;20105;-59
2022/07/17 00:06:41;;;;;;;6.70;2.58;;;;;;;17.91;55.65;100989.50;5094060;28;20075;-58
2022/07/17 00:09:25;;;;;;;4.03;2.30;;;;;;;17.92;55.82;100986.91;5094724;28;20116;-58
2022/07/17 00:12:17;;;;;;;6.40;2.83;;;;;;;17.90;55.71;100995.66;5094649;28;20055;-57
2022/07/17 00:15:07;;;;;;;4.10;2.75;;;;;;;17.88;55.81;100998.25;5093351;28;20051;-58
2022/07/17 00:17:57;;;;;;;5.13;2.67;;;;;;;17.84;55.90;100988.63;5094615;28;20089;-57
2022/07/17 00:20:47;;;;;;;4.03;2.45;;;;;;;17.85;55.79;100987.75;5093248;28;20063;-57
2022/07/17 00:23:39;;;;;;;5.72;2.40;;;;;;;17.84;55.73;100988.63;5093623;28;20129;-59
2022/07/17 00:26:26;;;;;;;4.72;2.33;;;;;;;17.82;55.81;100987.78;5093217;28;20399;-57
2022/07/17 00:29:19;;;;;;;12.02;2.55;;;;;;;17.80;55.86;100979.91;5093272;28;20105;-57
2022/07/17 00:32:09;;;;;;;6.28;2.85;;;;;;;17.78;55.79;100970.28;5094418;28;20120;-60
2022/07/17 00:34:56;;;;;;;5.95;2.58;;;;;;;17.73;55.54;100969.41;5093838;28;20434;-59
2022/07/17 00:37:42;;;;;;;4.45;2.65;;;;;;;17.71;55.76;100972.03;5094249;28;20043;-59
2022/07/17 00:40:29;;;;;;;6.45;2.45;;;;;;;17.71;55.81;100973.75;5092858;28;20039;-60
2022/07/17 00:43:18;;;;;;;5.18;2.30;;;;;;;17.70;55.71;100964.16;5093973;28;20181;-59
2022/07/17 00:46:03;;;;;;;6.25;2.60;;;;;;;17.69;55.92;100963.28;5093983;28;20067;-59
2022/07/17 00:48:56;;;;;;;9.10;2.63;;;;;;;17.66;55.83;100960.66;5092740;28;20055;-58
2022/07/17 00:51:43;;;;;;;5.63;2.55;;;;;;;17.64;55.69;100957.16;5092668;28;20090;-59
2022/07/17 00:54:32;;;;;;;4.97;2.83;;;;;;;17.63;56.02;100963.25;5092999;28;20081;-59
2022/07/17 00:57:20;;;;;;;7.43;2.65;;;;;;;17.62;55.98;100958.91;5093572;28;20576;-59
2022/07/17 01:00:09;;;;;;;8.30;2.60;;;;;;;17.61;56.00;100958.03;5092626;28;20050;-59
2022/07/17 01:02:54;;;;;;;9.30;3.47;;;;;;;17.62;55.89;100959.78;5093035;28;20062;-58
2022/07/17 01:05:47;;;;;;;8.52;2.58;;;;;;;17.59;55.82;100957.16;5093287;28;20088;-59
2022/07/17 01:08:36;;;;;;;5.47;2.25;;;;;;;17.56;55.91;100954.53;5121713;27;20571;-59
2022/07/17 01:11:29;;;;;;;4.63;2.15;;;;;;;17.54;55.85;100945.78;5093095;28;20054;-59
2022/07/17 01:14:15;;;;;;;10.65;3.13;;;;;;;17.51;56.08;100948.41;5093710;28;20066;-59
2022/07/17 01:17:04;;;;;;;6.68;2.33;;;;;;;17.52;55.97;100942.28;5093683;28;20093;-59
2022/07/17 01:19:57;;;;;;;5.72;2.40;;;;;;;17.51;55.85;100948.41;5109905;28;20054;-59
2022/07/17 01:22:48;;;;;;;6.88;2.67;;;;;;;17.50;55.96;100952.78;5098492;28;20043;-59
2022/07/17 01:25:33;;;;;;;8.98;2.80;;;;;;;17.49;56.06;100937.91;5113773;28;20414;-59
2022/07/17 01:28:23;;;;;;;5.10;2.38;;;;;;;17.48;55.92;100935.31;5098743;28;20054;-60
2022/07/17 01:31:12;;;;;;;5.15;2.63;;;;;;;17.48;55.90;100937.94;5098600;28;20438;-59
2022/07/17 01:34:01;;;;;;;9.60;2.70;;;;;;;17.47;56.10;100941.41;5098289;28;20074;-59
2022/07/17 01:36:50;;;;;;;5.68;2.45;;;;;;;17.44;55.89;100936.16;5098134;28;20042;-59
2022/07/17 01:39:52;;;;;;;6.80;2.35;;;;;;;17.44;56.15;100944.03;5113469;28;20043;-59
2022/07/17 01:42:45;;;;;;;4.60;2.38;;;;;;;17.42;56.28;100943.13;5098316;28;20055;-58
2022/07/17 01:45:34;;;;;;;5.63;2.38;;;;;;;17.41;56.15;100929.19;5113806;28;20092;-59
2022/07/17 01:48:29;;;;;;;8.38;2.25;;;;;;;17.39;56.13;100933.53;5098457;28;20093;-58
2022/07/17 01:51:22;;;;;;;5.75;2.80;;;;;;;17.42;56.09;100930.03;5098142;28;20545;-59
2022/07/17 01:54:06;;;;;;;4.35;2.60;;;;;;;17.41;56.14;100938.78;5127210;28;20096;-59
2022/07/17 01:56:50;;;;;;;9.10;3.03;;;;;;;17.40;56.21;100935.28;5097938;28;20046;-58
2022/07/17 01:59:39;;;;;;;7.97;3.25;;;;;;;17.40;56.16;100940.53;5113578;28;20047;-58
2022/07/17 02:02:26;;;;;;;9.77;2.85;;;;;;;17.40;56.12;100937.91;5113875;28;20050;-58
2022/07/17 02:05:16;;;;;;;3.70;2.40;;;;;;;17.39;56.11;100940.50;5098727;28;20055;-58
2022/07/17 02:08:09;;;;;;;9.90;3.08;;;;;;;17.38;55.81;100931.78;5101474;28;20097;-62
2022/07/17 02:10:56;;;;;;;6.28;3.13;;;;;;;17.33;56.14;100938.75;5101840;28;20054;-57
2022/07/17 02:13:40;;;;;;;6.20;2.80;;;;;;;17.30;56.01;100938.75;5117369;28;20055;-58
2022/07/17 02:16:30;;;;;;;;;;;;;;;17.26;56.08;100945.72;5117872;28;20069;-60
2022/07/17 02:19:20;;;;;;;7.65;2.78;;;;;;;17.27;56.24;100944.84;5101537;28;19929;-57
2022/07/17 02:22:07;;;;;;;10.18;2.63;;;;;;;17.27;56.31;100947.47;5101915;28;20101;-57
2022/07/17 02:24:51;;;;;;;5.78;2.55;;;;;;;17.26;56.15;100950.09;5116805;28;20050;-57
2022/07/17 02:27:43;;;;;;;5.68;2.80;;;;;;;17.27;56.16;100949.25;5101525;28;20047;-57
2022/07/17 02:30:27;;;;;;;8.07;2.85;;;;;;;17.27;56.31;100951.84;5117038;28;20126;-57
2022/07/17 02:33:14;;;;;;;12.10;2.78;;;;;;;17.26;56.04;100953.59;5116701;28;20562;-59
2022/07/17 02:36:04;;;;;;;10.43;2.53;;;;;;;17.26;56.24;100950.09;5101465;28;20619;-58
2022/07/17 02:38:48;;;;;;;14.80;3.47;;;;;;;17.24;56.19;100944.84;5101234;28;20042;-59
2022/07/17 02:41:32;;;;;;;9.27;2.80;;;;;;;17.22;56.18;100945.72;5116328;28;20047;-57
2022/07/17 02:44:19;;;;;;;10.10;3.33;;;;;;;17.20;56.04;100941.34;5116420;28;20062;-58
2022/07/17 02:47:08;;;;;;;10.90;3.08;;;;;;;17.21;56.08;100947.44;5101274;28;20118;-59
2022/07/17 02:50:01;;;;;;;7.55;2.60;;;;;;;17.20;56.22;100940.50;5101010;28;20053;-58
2022/07/17 02:52:50;;;;;;;8.80;2.70;;;;;;;17.18;56.06;100937.84;5101259;28;20044;-57
2022/07/17 02:55:39;;;;;;;6.63;2.63;;;;;;;17.16;55.80;100944.81;5101485;28;20513;-57
2022/07/17 02:58:32;;;;;;;9.43;3.10;;;;;;;17.16;56.15;100954.44;5101202;28;20163;-59
2022/07/17 03:01:16;;;;;;;16.98;2.58;;;;;;;17.12;56.14;100939.56;5116126;28;20074;-58
2022/07/17 03:04:00;;;;;;;11.18;3.00;;;;;;;17.09;56.06;100936.94;5100992;28;20039;-58
2022/07/17 03:06:47;;;;;;;8.02;3.33;;;;;;;17.08;56.18;100935.19;5116030;28;20043;-58
2022/07/17 03:09:34;;;;;;;8.90;2.80;;;;;;;17.05;56.20;100938.69;5116254;28;20042;-57
2022/07/17 03:12:21;;;;;;;11.25;3.25;;;;;;;17.04;56.21;100943.06;5100466;28;20410;-58
2022/07/17 03:15:11;;;;;;;12.20;3.17;;;;;;;17.01;56.11;100935.19;5100985;28;20049;-58
2022/07/17 03:18:00;;;;;;;9.90;2.97;;;;;;;17.01;56.09;100936.91;5100469;28;20155;-58
2022/07/17 03:20:50;;;;;;;4.40;3.03;;;;;;;17.00;56.22;100938.66;5100775;28;20050;-57
2022/07/17 03:23:40;;;;;;;5.70;2.60;;;;;;;16.99;56.17;100938.66;5100766;28;20134;-57
2022/07/17 03:26:24;;;;;;;10.13;3.63;;;;;;;16.98;56.08;100944.75;5100644;28;20504;-57
2022/07/17 03:29:11;;;;;;;7.97;2.60;;;;;;;16.96;56.11;100942.13;5115555;28;20050;-59
2022/07/17 03:31:58;;;;;;;9.13;2.90;;;;;;;16.97;56.35;100953.50;5115526;28;20096;-59
2022/07/17 03:34:45;;;;;;;9.40;3.05;;;;;;;16.98;56.18;100957.84;5100337;28;20050;-59
2022/07/17 03:37:32;;;;;;;6.20;2.58;;;;;;;16.96;56.34;100952.63;5115655;28;20482;-59
2022/07/17 03:40:24;;;;;;;6.57;2.67;;;;;;;16.94;56.36;100956.94;5100157;28;20094;-59
2022/07/17 03:43:17;;;;;;;9.02;3.17;;;;;;;16.91;56.25;100935.97;5115395;28;20620;-59
2022/07/17 03:46:08;;;;;;;8.13;3.38;;;;;;;16.90;56.27;100936.81;5115408;28;20051;-59
2022/07/17 03:48:53;;;;;;;9.93;3.42;;;;;;;16.89;56.17;100938.59;5100005;28;20101;-59
2022/07/17 03:51:37;;;;;;;13.05;3.63;;;;;;;16.88;56.21;100934.22;5100086;28;20484;-58
2022/07/17 03:54:20;;;;;;;15.32;3.40;;;;;;;16.89;56.26;100929.88;5114961;28;20050;-59
2022/07/17 03:57:13;;;;;;;10.02;3.28;;;;;;;16.87;56.30;100934.22;5115067;28;20104;-59
2022/07/17 04:00:00;;;;;;;10.18;3.10;;;;;;;16.87;56.50;100931.59;5099658;28;20100;-59
2022/07/17 04:02:49;;;;;;;8.98;3.28;;;;;;;16.85;56.16;100935.97;5100178;28;20529;-59
2022/07/17 04:05:38;;;;;;;6.95;3.00;;;;;;;16.82;56.33;100943.78;5099817;28;20051;-59
2022/07/17 04:08:28;;;;;;;7.72;2.88;;;;;;;16.83;56.42;100945.53;5099561;28;20051;-59
2022/07/17 04:11:21;;;;;;;8.40;2.72;;;;;;;16.81;56.41;100945.53;5100006;28;20051;-59
2022/07/17 04:14:08;;;;;;;6.00;3.13;;;;;;;16.80;56.30;100949.03;5099912;28;20050;-59
2022/07/17 04:16:52;;;;;;;9.63;3.30;;;;;;;16.79;56.36;100955.13;5114919;28;20082;-59
2022/07/17 04:19:42;;;;;;;7.70;2.88;;;;;;;16.80;56.35;100958.59;5099443;28;20108;-58
2022/07/17 04:22:26;;;;;;;5.43;3.13;;;;;;;16.80;56.32;100964.75;5099767;28;20508;-58
2022/07/17 04:25:13;;;;;;;5.00;3.15;;;;;;;16.79;56.54;100962.97;5115268;28;20047;-58
2022/07/17 04:28:02;;;;;;;6.47;2.63;;;;;;;16.79;56.61;100959.47;5127982;27;20066;-59
2022/07/17 04:30:52;;;;;;;11.25;2.97;;;;;;;16.79;56.55;100967.34;5099331;28;20058;-59
2022/07/17 04:33:45;;;;;;;6.60;2.63;;;;;;;16.81;56.53;100962.97;5099652;28;20043;-58
2022/07/17 04:36:35;;;;;;;9.30;3.65;;;;;;;16.79;56.54;100964.72;5099489;28;20468;-58
2022/07/17 04:39:19;;;;;;;5.65;2.67;;;;;;;16.77;56.49;100967.34;5114340;28;20088;-57
2022/07/17 04:42:04;;;;;;;6.18;2.67;;;;;;;16.78;56.68;100976.03;5099048;28;20050;-57
2022/07/17 04:44:53;;;;;;;8.48;2.47;;;;;;;16.77;56.61;100969.06;5114202;28;20038;-57
2022/07/17 04:47:40;;;;;;;7.53;2.83;;;;;;;16.75;56.59;100964.69;5098539;28;20055;-59
2022/07/17 04:50:25;;;;;;;7.28;2.70;;;;;;;16.73;56.71;100969.06;5099290;28;20059;-58
2022/07/17 04:53:13;;;;;;;4.32;2.70;;;;;;;16.72;56.53;100967.31;5098734;28;20558;-57
2022/07/17 04:55:57;;;;;;;12.10;3.28;;;;;;;16.72;56.55;100971.66;5099034;28;20038;-58
2022/07/17 04:58:46;;;;;;;13.90;4.03;;;;;;;16.71;56.51;100972.53;5113936;28;20069;-58
2022/07/17 05:01:35;;;;;;;9.35;2.95;;;;;;;16.70;56.43;100976.00;5114006;28;20112;-57
2022/07/17 05:04:22;;;;;;;10.57;3.63;;;;;;;16.71;56.58;100977.75;5099116;28;20042;-57
2022/07/17 05:07:06;;;;;;;9.35;4.00;;;;;;;16.70;56.58;100982.13;5114015;28;20059;-57
2022/07/17 05:09:51;;;;;;;11.48;3.13;;;;;;;16.71;56.58;100978.66;5114039;28;20088;-58
2022/07/17 05:12:35;;;;;;;12.38;3.53;;;;;;;16.71;56.60;100978.66;5113766;28;20057;-58
2022/07/17 05:15:23;;;;;;;10.60;3.80;;;;;;;16.72;56.72;100996.09;5098637;28;20410;-58
2022/07/17 05:18:08;;;;;;;12.48;3.33;;;;;;;16.75;56.79;100995.25;5113727;28;20497;-58
2022/07/17 05:20:52;;;;;;;8.48;3.53;;;;;;;16.77;56.71;100983.03;5098770;28;20548;-58
2022/07/17 05:23:36;;;;;;;12.82;3.53;;;;;;;16.75;56.88;100983.00;5114033;28;20127;-57
2022/07/17 05:26:20;;;;;;;10.43;4.05;;;;;;;16.78;56.77;100990.03;5113659;28;20046;-59
2022/07/17 05:29:04;;;;;;;12.27;4.13;;;;;;;16.79;57.02;100986.53;5114063;28;20073;-58
2022/07/17 05:31:48;;;;;;;12.05;4.00;;;;;;;16.82;56.85;100986.53;5113804;28;20050;-57
2022/07/17 05:34:32;;;;;;;11.57;4.40;;;;;;;16.82;56.97;100989.16;5113434;28;20058;-58
2022/07/17 05:37:16;;;;;;;16.75;4.57;;;;;;;16.84;56.71;100995.28;5113334;28;20414;-58
2022/07/17 05:40:03;;;;;;;15.43;4.43;;;;;;;16.86;56.82;101006.63;5113777;28;20082;-58
2022/07/17 05:42:50;;;;;;;13.50;4.88;;;;;;;16.88;56.92;101012.75;5102698;28;20117;-57
2022/07/17 05:45:40;;;;;;;11.80;4.72;;;;;;;16.93;57.01;101007.53;5117322;28;20050;-57
2022/07/17 05:48:30;;;;;;;16.15;4.22;;;;;;;16.94;57.08;100996.19;5102505;28;20064;-57
2022/07/17 05:51:14;;;;;;;16.77;4.43;;;;;;;16.96;56.97;100994.50;5102347;28;20059;-58
2022/07/17 05:54:01;;;;;;;14.57;4.50;;;;;;;16.97;56.75;101003.25;5117649;28;20101;-58
2022/07/17 05:56:45;;;;;;;17.85;4.35;;;;;;;16.98;57.10;101005.88;5117555;28;20058;-57
2022/07/17 05:59:31;;;;;;;18.80;4.75;;;;;;;16.99;56.84;101018.09;5102203;28;20059;-58
2022/07/17 06:02:21;;;;;;;10.05;4.70;;;;;;;17.00;56.88;101012.00;5116990;28;20100;-59
2022/07/17 06:05:08;;;;;;;13.45;4.43;;;;;;;17.01;57.21;101012.84;5101992;28;20039;-58
2022/07/17 06:07:54;;;;;;;20.40;4.82;;;;;;;17.00;56.81;101008.47;5117404;28;20054;-58
2022/07/17 06:10:41;;;;;;;10.65;4.47;;;;;;;17.01;56.79;101005.00;5101726;28;20131;-58
2022/07/17 06:13:30;;;;;;;11.10;4.55;;;;;;;17.03;56.78;101006.78;5102066;28;20155;-58
2022/07/17 06:16:14;;;;;;;11.85;3.70;;;;;;;17.06;57.05;101000.66;5101634;28;20414;-59
2022/07/17 06:19:00;;;;;;;10.80;4.72;;;;;;;17.07;57.05;100986.69;5095349;28;20117;-58
2022/07/17 06:21:44;;;;;;;16.60;4.20;;;;;;;17.09;57.06;100986.69;5096913;28;20522;-57
2022/07/17 06:24:28;;;;;;;18.60;3.67;;;;;;;17.12;57.11;100991.94;5097031;28;20440;-57
2022/07/17 06:27:12;;;;;;;14.90;4.57;;;;;;;17.14;56.90;100991.06;5096537;28;20406;-58
2022/07/17 06:29:59;;;;;;;16.88;3.83;;;;;;;17.16;56.94;100988.47;5096585;28;20104;-57
2022/07/17 06:32:43;;;;;;;15.38;3.67;;;;;;;17.20;56.96;100987.63;5095602;28;20050;-59
2022/07/17 06:35:33;;;;;;;12.00;3.83;;;;;;;17.21;56.99;100989.34;5096842;28;20505;-58
2022/07/17 06:38:17;;;;;;;9.43;4.05;;;;;;;17.22;57.06;100980.63;5095374;28;20131;-59
2022/07/17 06:41:02;;;;;;;;;;;;;;;17.22;56.71;100998.09;5096610;28;20475;-59
2022/07/17 06:43:46;;;;;;;14.95;4.57;;;;;;;17.24;56.98;100994.63;5096559;28;19919;-58
2022/07/17 06:46:30;;;;;;;23.23;4.30;;;;;;;17.26;56.98;100990.25;5096335;28;20066;-59
2022/07/17 06:49:14;;;;;;;8.90;3.72;;;;;;;17.30;56.99;100996.38;5096345;28;20533;-59
2022/07/17 06:51:58;;;;;;;;;;;;;;;17.30;56.84;100996.38;5095567;28;20078;-59
2022/07/17 06:54:45;;;;;;;11.80;3.50;;;;;;;17.31;57.07;100995.50;5095433;28;19954;-59
2022/07/17 06:57:29;;;;;;;12.52;3.97;;;;;;;17.32;56.85;101002.50;5095610;28;20048;-59
2022/07/17 07:00:15;;;;;;;6.72;3.53;;;;;;;17.34;56.69;101004.28;5095662;28;20101;-59
2022/07/17 07:03:00;;;;;;;7.22;3.03;;;;;;;17.35;56.82;101006.03;5094754;28;20565;-58
2022/07/17 07:05:44;;;;;;;8.45;3.25;;;;;;;17.38;56.86;100999.03;5095453;28;20058;-58
2022/07/17 07:08:28;;;;;;;8.75;2.90;;;;;;;17.38;56.94;101002.53;5096221;28;20109;-58
2022/07/17 07:11:12;;;;;;;8.57;3.35;;;;;;;17.38;56.73;101007.78;5096123;28;20051;-59
2022/07/17 07:13:56;;;;;;;10.30;3.67;;;;;;;17.38;56.92;101014.75;5095321;28;20051;-58
2022/07/17 07:16:40;;;;;;;6.30;3.55;;;;;;;17.39;56.74;101011.25;5095781;28;20142;-58
2022/07/17 07:19:23;;;;;;;11.00;3.85;;;;;;;17.39;56.93;101014.75;5107885;28;20147;-59
2022/07/17 07:22:07;;;;;;;11.23;3.95;;;;;;;17.41;57.13;101015.66;5115858;28;20044;-59
2022/07/17 07:24:54;;;;;;;7.38;3.60;;;;;;;17.43;56.83;101010.41;5115759;28;20093;-59
2022/07/17 07:27:38;;;;;;;6.03;3.42;;;;;;;17.44;56.81;101007.78;5100722;28;20114;-59
2022/07/17 07:30:22;;;;;;;11.50;3.33;;;;;;;17.45;56.83;101009.53;5115935;28;20624;-59
2022/07/17 07:33:06;;;;;;;7.50;3.53;;;;;;;17.46;56.88;101008.66;5115673;28;20084;-59
2022/07/17 07:35:50;;;;;;;16.10;4.38;;;;;;;17.49;56.59;101010.44;5115600;28;20070;-58
2022/07/17 07:38:35;;;;;;;10.38;3.65;;;;;;;17.52;56.96;101010.41;5115556;28;20050;-59
2022/07/17 07:41:19;;;;;;;8.70;3.40;;;;;;;17.55;56.73;101007.81;5100484;28;20398;-58
2022/07/17 07:44:03;;;;;;;9.60;3.63;;;;;;;17.57;56.72;101011.31;5115173;28;20514;-58
2022/07/17 07:46:50;;;;;;;6.55;3.55;;;;;;;17.58;56.83;101007.81;5115483;28;20042;-58
2022/07/17 07:49:34;;;;;;;10.48;3.22;;;;;;;17.59;56.83;101017.44;5099988;28;20066;-58
2022/07/17 07:52:18;;;;;;;8.00;3.20;;;;;;;17.59;56.82;101013.94;5115319;28;20410;-58
2022/07/17 07:55:03;;;;;;;9.65;3.38;;;;;;;17.60;56.79;101023.53;5115724;28;20042;-58
2022/07/17 07:58:00;;;;;;;11.07;3.13;;;;;;;17.61;56.73;101020.94;5115436;28;20051;-59
2022/07/17 08:00:45;;;;;;;7.88;2.90;;;;;;;17.62;56.62;101017.44;5115200;28;20038;-59
2022/07/17 08:03:28;;;;;;;6.47;2.85;;;;;;;17.64;56.62;101017.44;5098702;28;20097;-60
2022/07/17 08:06:14;;;;;;;8.90;3.13;;;;;;;17.64;56.45;101015.72;5115099;28;20382;-59
2022/07/17 08:08:58;;;;;;;5.75;2.92;;;;;;;17.67;56.73;101016.59;5099796;28;20054;-59
2022/07/17 08:11:45;;;;;;;12.50;3.85;;;;;;;17.69;56.76;101018.34;5115273;28;20042;-59
2022/07/17 08:14:28;;;;;;;11.05;3.70;;;;;;;17.71;56.68;101015.69;5115097;28;20047;-58
2022/07/17 08:17:13;;;;;;;7.82;2.67;;;;;;;17.74;56.80;101024.47;5115121;28;20042;-60
2022/07/17 08:19:56;;;;;;;7.28;3.13;;;;;;;17.75;56.70;101017.47;5114137;28;20058;-59
2022/07/17 08:22:42;;;;;;;9.55;2.38;;;;;;;17.80;56.64;101024.47;5114681;28;20046;-59
2022/07/17 08:25:26;;;;;;;9.48;3.63;;;;;;;17.83;56.79;101022.72;5099720;28;20077;-58
2022/07/17 08:28:10;;;;;;;8.38;2.65;;;;;;;17.85;56.59;101028.84;5114802;28;20090;-60
2022/07/17 08:30:54;;;;;;;6.13;2.50;;;;;;;17.85;56.70;101032.34;5114948;28;20066;-58
2022/07/17 08:33:38;;;;;;;9.88;2.88;;;;;;;17.84;56.84;101030.56;5114316;28;20112;-58
2022/07/17 08:36:21;;;;;;;12.45;3.05;;;;;;;17.89;56.29;101038.47;5114576;28;20513;-58
2022/07/17 08:39:06;;;;;;;9.15;2.80;;;;;;;17.90;56.32;101029.75;5114661;28;20034;-58
2022/07/17 08:41:50;;;;;;;;;;;;;;;17.91;56.29;101039.31;5114847;28;20055;-59
2022/07/17 08:44:34;;;;;;;5.60;2.23;;;;;;;17.91;56.43;101034.09;5114361;28;20293;-59
2022/07/17 08:47:21;;;;;;;6.60;2.72;;;;;;;17.93;56.33;101025.38;5114396;28;20058;-59
2022/07/17 08:50:10;;;;;;;8.63;2.83;;;;;;;17.94;56.48;101029.75;5098960;28;20123;-59
2022/07/17 08:52:54;;;;;;;8.43;2.08;;;;;;;17.98;56.08;101032.41;5114457;28;20459;-59
2022/07/17 08:56:30;;;;;;;7.43;2.28;;;;;;;17.99;55.91;101035.00;5131892;27;20527;-58
2022/07/17 08:59:19;;;;;;;4.43;2.42;;;;;;;18.02;56.21;101023.66;5131855;28;20046;-58
2022/07/17 09:02:05;;;;;;;4.18;2.40;;;;;;;18.02;55.96;101027.16;5131259;28;20051;-58
2022/07/17 09:04:55;;;;;;;4.75;2.28;;;;;;;18.03;56.22;101023.66;5131900;28;20057;-58
2022/07/17 09:07:47;;;;;;;5.53;2.47;;;;;;;18.06;56.06;101033.28;5115929;28;20038;-59
2022/07/17 09:10:36;;;;;;;6.45;2.13;;;;;;;18.07;55.91;101035.88;5116388;28;20086;-58
2022/07/17 09:13:30;;;;;;;7.63;2.42;;;;;;;18.08;55.90;101031.53;5115982;28;20084;-58
2022/07/17 09:16:14;;;;;;;4.45;2.13;;;;;;;18.11;55.81;101031.53;5115649;28;20108;-58
2022/07/17 09:18:59;;;;;;;7.32;2.47;;;;;;;18.10;55.79;101021.91;5131260;28;20046;-59
2022/07/17 09:21:43;;;;;;;2.88;2.00;;;;;;;18.10;55.48;101014.91;5131117;28;20054;-58
2022/07/17 09:24:57;;;;;;;6.50;2.78;;;;;;;18.14;55.51;101018.41;5131088;28;20050;-58
2022/07/17 09:27:41;;;;;;;5.03;2.40;;;;;;;18.15;55.54;101006.16;5131330;28;20138;-59
2022/07/17 09:30:26;;;;;;;10.15;2.80;;;;;;;18.17;55.69;101018.41;5131044;28;20085;-58
2022/07/17 09:33:17;;;;;;;7.20;2.45;;;;;;;18.21;55.54;101024.56;5115949;28;20050;-58
2022/07/17 09:36:12;;;;;;;6.82;2.50;;;;;;;18.24;55.79;101028.03;5115538;28;20579;-58
2022/07/17 09:38:58;;;;;;;8.27;2.53;;;;;;;18.25;55.60;101027.16;5115570;28;20529;-58
2022/07/17 09:41:41;;;;;;;6.95;2.13;;;;;;;18.26;55.45;101028.03;5115556;28;20099;-59
2022/07/17 09:44:25;;;;;;;12.63;2.55;;;;;;;18.28;55.37;101022.78;5130713;28;20050;-58
2022/07/17 09:47:10;;;;;;;4.60;2.08;;;;;;;18.32;55.48;101032.38;5130787;28;20065;-58
2022/07/17 09:49:54;;;;;;;;;;;;;;;18.32;55.44;101032.38;5131696;28;20524;-60
2022/07/17 09:52:39;;;;;;;13.65;3.55;;;;;;;18.33;55.21;101019.28;5131319;28;19918;-58
2022/07/17 09:55:30;;;;;;;36.22;6.88;;;;;;;18.35;55.65;101030.66;5130167;28;20059;-58
2022/07/17 09:58:19;;;;;;;38.75;7.78;;;;;;;18.37;55.44;101021.00;5130370;28;20042;-58
2022/07/17 10:01:04;;;;;;;87.60;13.18;;;;;;;18.40;55.11;101028.88;5115224;28;20104;-59
2022/07/17 10:03:50;;;;;;;34.90;7.38;;;;;;;18.43;55.36;101038.53;5131261;28;20447;-60
2022/07/17 10:06:34;;;;;;;30.85;6.55;;;;;;;18.44;55.04;101037.66;5109071;28;20130;-58
2022/07/17 10:09:18;;;;;;;34.95;6.45;;;;;;;18.45;54.91;101031.50;5117613;28;20055;-58
2022/07/17 10:12:03;;;;;;;46.25;7.47;;;;;;;18.45;55.10;101031.50;5116339;28;20484;-58
2022/07/17 10:14:51;;;;;;;35.00;6.53;;;;;;;18.46;54.87;101038.50;5101094;28;20096;-58
2022/07/17 10:17:40;;;;;;;26.70;5.80;;;;;;;18.48;54.99;101044.63;5116469;28;20054;-59
2022/07/17 10:20:25;;;;;;;35.63;6.13;;;;;;;18.48;55.02;101039.38;5101391;28;20152;-58
2022/07/17 10:23:20;;;;;;;26.75;6.03;;;;;;;18.49;55.07;101035.03;5101417;28;20536;-58
2022/07/17 10:26:04;;;;;;;23.08;4.95;;;;;;;18.51;54.73;101035.91;5100956;28;20108;-60
2022/07/17 10:28:48;;;;;;;31.15;6.05;;;;;;;18.53;54.60;101032.38;5116597;28;20078;-59
2022/07/17 10:31:34;;;;;;;17.95;3.97;;;;;;;18.53;54.74;101024.50;5116709;28;20034;-60
2022/07/17 10:34:18;;;;;;;31.73;4.25;;;;;;;18.55;54.77;101024.50;5116367;28;20104;-59
2022/07/17 10:37:02;;;;;;;14.43;3.67;;;;;;;18.57;54.62;101020.13;5100719;28;20070;-58
2022/07/17 10:40:11;;;;;;;14.88;4.05;;;;;;;18.57;54.55;101030.63;5116285;28;20122;-58
2022/07/17 10:43:04;;;;;;;12.05;3.42;;;;;;;18.59;54.92;101030.63;5115981;28;20131;-59
2022/07/17 10:45:48;;;;;;;8.52;2.83;;;;;;;18.60;54.58;101027.13;5100614;28;20426;-58
2022/07/17 10:48:33;;;;;;;10.43;2.60;;;;;;;18.63;54.39;101037.63;5101030;28;20046;-58
2022/07/17 10:51:18;;;;;;;5.15;2.33;;;;;;;18.63;54.27;101029.72;5115723;28;20054;-58
2022/07/17 10:54:02;;;;;;;9.07;2.78;;;;;;;18.64;53.96;101028.84;5100694;28;20055;-58
2022/07/17 10:56:48;;;;;;;6.93;3.13;;;;;;;18.65;54.23;101028.88;5116303;28;20108;-59
2022/07/17 10:59:32;;;;;;;6.70;2.20;;;;;;;18.66;54.22;101020.13;5100764;28;20504;-58
2022/07/17 11:02:16;;;;;;;5.03;2.63;;;;;;;18.66;54.16;101019.25;5115929;28;20406;-58
2022/07/17 11:05:08;;;;;;;7.18;2.33;;;;;;;18.70;54.21;101023.59;5116131;28;20073;-60
2022/07/17 11:07:55;;;;;;;6.45;2.95;;;;;;;18.72;54.28;101025.34;5100086;28;20533;-59
2022/07/17 11:10:40;;;;;;;5.22;2.45;;;;;;;18.74;54.23;101022.72;5115611;28;20138;-59
2022/07/17 11:13:24;;;;;;;10.98;2.92;;;;;;;18.77;54.14;101027.09;5115713;28;20043;-59
2022/07/17 11:16:08;;;;;;;10.85;2.78;;;;;;;18.77;54.08;101020.06;5100298;28;20043;-59
2022/07/17 11:18:57;;;;;;;5.88;2.20;;;;;;;18.78;54.06;101013.09;5114441;28;20069;-60
2022/07/17 11:21:46;;;;;;;7.93;2.58;;;;;;;18.77;53.99;101009.56;5115390;28;20093;-58
2022/07/17 11:24:44;;;;;;;4.03;2.15;;;;;;;18.80;54.18;101008.72;5100224;28;20064;-58
2022/07/17 11:27:30;;;;;;;7.60;2.35;;;;;;;18.82;53.70;101013.06;5099620;28;20047;-58
2022/07/17 11:30:15;;;;;;;5.13;2.42;;;;;;;18.81;53.77;101003.44;5115163;28;20125;-58
2022/07/17 11:33:01;;;;;;;6.03;2.50;;;;;;;18.84;53.88;101003.44;5115256;28;20042;-59
2022/07/17 11:35:48;;;;;;;5.45;2.40;;;;;;;18.84;53.73;101003.44;5114999;28;20104;-59
2022/07/17 11:38:34;;;;;;;6.30;2.25;;;;;;;18.85;53.81;101002.56;5115299;28;20462;-58
2022/07/17 11:41:18;;;;;;;6.35;2.40;;;;;;;18.85;53.68;100994.69;5114833;28;20046;-59
2022/07/17 11:44:05;;;;;;;9.35;2.15;;;;;;;18.88;53.67;100999.03;5099542;28;20175;-60
2022/07/17 11:46:50;;;;;;;5.05;2.40;;;;;;;18.91;53.75;101004.28;5099708;28;20524;-59
2022/07/17 11:49:40;;;;;;;5.05;2.63;;;;;;;18.92;53.62;100994.69;5115167;28;20050;-60
2022/07/17 11:52:24;;;;;;;5.45;2.50;;;;;;;18.93;53.45;100988.50;5099416;28;20064;-59
2022/07/17 11:55:09;;;;;;;6.97;2.90;;;;;;;18.97;53.64;100987.66;5093057;28;20444;-59
2022/07/17 11:57:54;;;;;;;7.32;2.53;;;;;;;18.99;53.63;100980.66;5093642;28;20101;-60
2022/07/17 12:00:38;;;;;;;9.77;2.40;;;;;;;18.98;53.49;100982.44;5093349;28;20047;-59
2022/07/17 12:03:25;;;;;;;3.65;2.13;;;;;;;19.00;53.48;100974.53;5094174;28;20136;-60
2022/07/17 12:06:10;;;;;;;4.13;2.25;;;;;;;18.99;53.34;100976.28;5093491;28;20513;-60
2022/07/17 12:08:54;;;;;;;4.38;2.22;;;;;;;19.00;53.58;100987.66;5093983;28;20043;-59
2022/07/17 12:11:49;;;;;;;6.82;2.60;;;;;;;19.00;53.49;100978.00;5093937;28;20124;-58
2022/07/17 12:14:32;;;;;;;;;;;;;;;19.02;53.57;100967.53;5092999;28;20043;-59
2022/07/17 12:17:17;;;;;;;6.20;2.80;;;;;;;19.01;53.56;100961.38;5094174;28;19968;-58
2022/07/17 12:20:05;;;;;;;7.75;2.45;;;;;;;19.01;53.59;100961.38;5094364;28;20079;-60
2022/07/17 12:22:50;;;;;;;5.43;2.05;;;;;;;19.05;53.16;100959.63;5093255;28;20097;-59
2022/07/17 12:25:34;;;;;;;8.68;3.17;;;;;;;19.08;52.95;100954.34;5093628;28;20464;-58
2022/07/17 12:28:18;;;;;;;9.13;2.42;;;;;;;19.08;53.12;100964.00;5093914;28;20195;-59
2022/07/17 12:31:31;;;;;;;9.23;2.58;;;;;;;19.08;53.09;100954.34;5132082;27;20200;-58
2022/07/17 12:34:15;;;;;;;;;;;;;;;19.09;53.22;100942.94;5132394;28;20129;-60
2022/07/17 12:36:59;;;;;;;6.32;2.50;;;;;;;19.08;53.05;100943.84;5131520;28;19921;-60
2022/07/17 12:39:44;;;;;;;9.23;2.80;;;;;;;19.12;52.98;100939.47;5132338;28;20485;-60
2022/07/17 12:42:39;;;;;;;5.15;2.38;;;;;;;19.15;52.99;100936.81;5111402;27;20249;-58
2022/07/17 12:45:24;;;;;;;;;;;;;;;19.16;52.97;100931.53;5111864;28;20051;-59
2022/07/17 12:48:08;;;;;;;11.18;3.00;;;;;;;19.19;52.81;100929.78;5110072;28;20398;-59
2022/07/17 12:50:52;;;;;;;9.38;3.10;;;;;;;19.17;52.79;100924.53;5111150;28;20144;-60
2022/07/17 12:53:36;;;;;;;12.38;3.33;;;;;;;19.19;53.01;100929.78;5110849;28;20518;-60
2022/07/17 12:56:20;;;;;;;11.18;2.67;;;;;;;19.19;52.98;100932.41;5111380;28;20407;-60